createdAt,value
2018-01-08T00:02:14.589Z,95745.51
2018-01-08T00:04:42.961Z,95752.38
2018-01-08T00:07:11.442Z,95741.44
2018-01-08T00:09:39.806Z,95727.69
2018-01-08T00:12:08.173Z,95727.98
2018-01-08T00:14:36.526Z,95732.03
2018-01-08T00:17:04.922Z,95725.00
2018-01-08T00:19:33.326Z,95732.77
2018-01-08T00:22:01.712Z,95723.58
2018-01-08T00:24:30.083Z,95726.90
2018-01-08T00:26:58.659Z,95723.45
2018-01-08T00:29:27.029Z,95722.03
2018-01-08T00:31:55.379Z,95725.17
2018-01-08T00:34:23.794Z,95716.05
2018-01-08T00:36:52.155Z,95720.65
2018-01-08T00:39:20.524Z,95725.42
2018-01-08T00:41:48.894Z,95720.72
2018-01-08T00:44:17.300Z,95726.27
2018-01-08T00:46:45.679Z,95723.73
2018-01-08T00:49:14.049Z,95730.10
2018-01-08T00:51:42.420Z,95720.58
2018-01-08T00:54:10.785Z,95718.67
2018-01-08T00:56:39.182Z,95712.39
2018-01-08T00:59:07.556Z,95716.00
2018-01-08T01:01:35.950Z,95716.35
2018-01-08T01:04:04.327Z,95700.09
2018-01-08T01:06:32.699Z,95707.72
2018-01-08T01:09:01.060Z,95704.05
2018-01-08T01:11:29.419Z,95709.06
2018-01-08T01:13:57.818Z,95707.36
2018-01-08T01:16:26.169Z,95719.48
2018-01-08T01:18:54.536Z,95708.20
2018-01-08T01:21:22.897Z,95705.91
2018-01-08T01:23:51.256Z,95704.49
2018-01-08T01:26:19.640Z,95732.73
2018-01-08T01:28:47.996Z,95708.52
2018-01-08T01:31:16.524Z,95712.83
2018-01-08T01:33:44.874Z,95710.23
2018-01-08T01:36:13.240Z,95712.38
2018-01-08T01:38:41.620Z,95708.75
2018-01-08T01:41:09.988Z,95719.28
2018-01-08T01:43:38.371Z,95715.58
2018-01-08T01:46:06.731Z,95720.74
2018-01-08T01:48:35.093Z,95725.02
2018-01-08T01:51:03.447Z,95717.44
2018-01-08T01:53:31.804Z,95721.44
2018-01-08T01:56:00.170Z,95721.02
2018-01-08T01:58:28.538Z,95726.70
2018-01-08T02:00:56.897Z,95729.18
2018-01-08T02:03:25.291Z,95723.25
2018-01-08T02:05:53.661Z,95719.10
2018-01-08T02:08:22.027Z,95731.98
2018-01-08T02:10:50.455Z,95720.67
2018-01-08T02:13:18.800Z,95721.84
2018-01-08T02:15:47.208Z,95724.92
2018-01-08T02:18:15.559Z,95721.31
2018-01-08T02:20:43.936Z,95722.94
2018-01-08T02:23:12.311Z,95714.23
2018-01-08T02:25:40.703Z,95716.03
2018-01-08T02:28:09.055Z,95711.67
2018-01-08T02:30:37.439Z,95709.67
2018-01-08T02:33:05.825Z,95720.30
2018-01-08T02:35:34.185Z,95715.59
2018-01-08T02:38:02.576Z,95718.22
2018-01-08T02:40:30.927Z,95709.98
2018-01-08T02:42:59.284Z,95715.97
2018-01-08T02:45:27.671Z,95709.61
2018-01-08T02:47:56.030Z,95708.45
2018-01-08T02:50:24.431Z,95703.97
2018-01-08T02:52:52.805Z,95706.01
2018-01-08T02:55:21.181Z,95710.24
2018-01-08T02:57:49.536Z,95703.33
2018-01-08T03:00:17.887Z,95711.14
2018-01-08T03:02:46.256Z,95715.64
2018-01-08T03:05:14.621Z,95706.95
2018-01-08T03:07:42.983Z,95705.93
2018-01-08T03:10:11.359Z,95708.93
2018-01-08T03:12:39.730Z,95710.13
2018-01-08T03:15:08.110Z,95707.64
2018-01-08T03:17:36.473Z,95714.56
2018-01-08T03:20:04.839Z,95710.63
2018-01-08T03:22:33.215Z,95714.38
2018-01-08T03:25:01.612Z,95705.73
2018-01-08T03:27:29.985Z,95706.20
2018-01-08T03:29:58.331Z,95709.36
2018-01-08T03:32:26.710Z,95703.53
2018-01-08T03:34:55.080Z,95712.34
2018-01-08T03:37:23.467Z,95707.95
2018-01-08T03:39:51.820Z,95711.00
2018-01-08T03:42:20.188Z,95706.90
2018-01-08T03:44:48.571Z,95699.83
2018-01-08T03:47:16.927Z,95696.97
2018-01-08T03:49:45.341Z,95711.65
2018-01-08T03:52:13.729Z,95704.80
2018-01-08T03:54:42.090Z,95705.59
2018-01-08T03:57:10.451Z,95701.83
2018-01-08T03:59:38.819Z,95707.33
2018-01-08T04:02:07.180Z,95703.82
2018-01-08T04:04:35.583Z,95710.30
2018-01-08T04:07:04.627Z,95707.78
2018-01-08T04:09:32.991Z,95705.70
2018-01-08T04:12:01.355Z,95713.05
2018-01-08T04:14:29.829Z,95713.11
2018-01-08T04:16:58.259Z,95722.03
2018-01-08T04:19:26.620Z,95713.98
2018-01-08T04:21:54.989Z,95710.67
2018-01-08T04:24:23.346Z,95706.30
2018-01-08T04:26:51.794Z,95716.81
2018-01-08T04:29:20.205Z,95714.50
2018-01-08T04:31:48.568Z,95712.28
2018-01-08T04:34:16.951Z,95711.20
2018-01-08T04:36:45.308Z,95708.86
2018-01-08T04:39:13.675Z,95709.50
2018-01-08T04:41:42.067Z,95707.19
2018-01-08T04:44:10.430Z,95719.40
2018-01-08T04:46:38.788Z,95710.69
2018-01-08T04:49:07.142Z,95712.63
2018-01-08T04:51:35.501Z,95718.02
2018-01-08T04:54:03.884Z,95721.36
2018-01-08T04:56:32.266Z,95725.50
2018-01-08T04:59:00.638Z,95716.16
2018-01-08T05:01:29.117Z,95716.13
2018-01-08T05:03:57.469Z,95719.05
2018-01-08T05:06:25.866Z,95718.00
2018-01-08T05:08:54.220Z,95724.17
2018-01-08T05:11:22.571Z,95720.48
2018-01-08T05:13:50.947Z,95711.31
2018-01-08T05:16:19.311Z,95719.46
2018-01-08T05:18:47.698Z,95715.76
2018-01-08T05:21:16.056Z,95708.70
2018-01-08T05:23:44.421Z,95713.23
2018-01-08T05:26:12.791Z,95716.58
2018-01-08T05:28:41.171Z,95710.73
2018-01-08T05:31:09.563Z,95723.91
2018-01-08T05:33:37.917Z,95721.56
2018-01-08T05:36:06.274Z,95712.70
2018-01-08T05:38:34.628Z,95716.55
2018-01-08T05:41:02.988Z,95718.22
2018-01-08T05:43:31.376Z,95704.45
2018-01-08T05:45:59.741Z,95720.48
2018-01-08T05:48:28.111Z,95718.52
2018-01-08T05:50:56.463Z,95726.17
2018-01-08T05:53:24.818Z,95717.26
2018-01-08T05:55:53.315Z,95715.76
2018-01-08T05:58:21.680Z,95718.96
2018-01-08T06:00:50.049Z,95727.55
2018-01-08T06:03:18.429Z,95713.50
2018-01-08T06:05:46.772Z,95716.75
2018-01-08T06:08:15.172Z,95722.48
2018-01-08T06:10:43.526Z,95721.11
2018-01-08T06:13:11.911Z,95733.07
2018-01-08T06:15:40.269Z,95727.33
2018-01-08T06:18:08.629Z,95714.73
2018-01-08T06:20:37.021Z,95712.59
2018-01-08T06:23:05.367Z,95717.90
2018-01-08T06:25:33.738Z,95722.78
2018-01-08T06:28:02.096Z,95727.77
2018-01-08T06:30:30.456Z,95721.98
2018-01-08T06:32:58.940Z,95724.77
2018-01-08T06:35:27.352Z,95723.66
2018-01-08T06:37:55.703Z,95729.50
2018-01-08T06:40:24.152Z,95722.53
2018-01-08T06:42:52.525Z,95726.88
2018-01-08T06:45:20.897Z,95727.17
2018-01-08T06:47:49.293Z,95723.02
2018-01-08T06:50:17.659Z,95719.06
2018-01-08T06:52:46.031Z,95725.73
2018-01-08T06:55:14.390Z,95723.79
2018-01-08T06:57:42.749Z,95721.09
2018-01-08T07:00:11.132Z,95729.38
2018-01-08T07:02:39.524Z,95726.56
2018-01-08T07:05:07.880Z,95734.53
2018-01-08T07:07:36.260Z,95733.64
2018-01-08T07:10:04.617Z,95724.64
2018-01-08T07:12:33.004Z,95739.48
2018-01-08T07:15:01.403Z,95730.33
2018-01-08T07:17:29.872Z,95742.44
2018-01-08T07:19:58.218Z,95742.24
2018-01-08T07:22:26.574Z,95741.70
2018-01-08T07:24:54.979Z,95741.42
2018-01-08T07:27:23.342Z,95735.64
2018-01-08T07:29:52.611Z,95732.14
2018-01-08T07:32:20.964Z,95727.59
2018-01-08T07:34:49.330Z,95732.77
2018-01-08T07:37:17.730Z,95721.76
2018-01-08T07:39:46.096Z,95720.16
2018-01-08T07:42:14.466Z,95724.22
2018-01-08T07:44:42.982Z,95721.56
2018-01-08T07:47:11.344Z,95724.00
2018-01-08T07:49:40.007Z,95717.11
2018-01-08T07:52:08.384Z,95726.25
2018-01-08T07:54:36.745Z,95733.48
2018-01-08T07:57:05.102Z,95730.89
2018-01-08T07:59:33.464Z,95720.59
2018-01-08T08:02:01.868Z,95719.84
2018-01-08T08:04:30.213Z,95715.34
2018-01-08T08:06:58.579Z,95721.62
2018-01-08T08:09:26.945Z,95719.17
2018-01-08T08:11:55.303Z,95724.06
2018-01-08T08:14:28.569Z,95717.21
2018-01-08T08:16:57.825Z,95726.68
2018-01-08T08:19:26.192Z,95722.98
2018-01-08T08:21:54.575Z,95720.74
2018-01-08T08:24:22.939Z,95721.52
2018-01-08T08:26:51.452Z,95710.24
2018-01-08T08:29:19.834Z,95715.71
2018-01-08T08:31:48.200Z,95714.42
2018-01-08T08:34:16.596Z,95710.15
2018-01-08T08:36:44.953Z,95710.73
2018-01-08T08:39:13.347Z,95717.65
2018-01-08T08:41:41.708Z,95718.53
2018-01-08T08:44:10.067Z,95706.34
2018-01-08T08:46:38.425Z,95705.50
2018-01-08T08:49:06.799Z,95709.63
2018-01-08T08:51:35.208Z,95723.53
2018-01-08T08:54:03.556Z,95710.66
2018-01-08T08:56:31.927Z,95719.36
2018-01-08T08:59:00.271Z,95726.02
2018-01-08T09:01:28.704Z,95722.30
2018-01-08T09:03:57.194Z,95732.52
2018-01-08T09:06:25.585Z,95735.78
2018-01-08T09:08:53.935Z,95729.19
2018-01-08T09:11:22.314Z,95729.50
2018-01-08T09:13:50.668Z,95731.09
2018-01-08T09:16:19.168Z,95723.19
2018-01-08T09:18:47.565Z,95733.27
2018-01-08T09:21:15.923Z,95716.80
2018-01-08T09:23:44.307Z,95721.70
2018-01-08T09:26:12.727Z,95719.07
2018-01-08T09:28:41.061Z,95715.47
2018-01-08T09:31:09.619Z,95714.02
2018-01-08T09:33:38.033Z,95718.34
2018-01-08T09:36:06.457Z,95718.30
2018-01-08T09:38:34.850Z,95721.67
2018-01-08T09:41:03.264Z,95715.56
2018-01-08T09:43:31.629Z,95724.05
2018-01-08T09:46:00.025Z,95721.67
2018-01-08T09:48:28.474Z,95721.60
2018-01-08T09:50:56.849Z,95712.91
2018-01-08T09:53:25.208Z,95731.16
2018-01-08T09:55:53.619Z,95726.23
2018-01-08T09:58:21.986Z,95719.03
2018-01-08T10:00:50.405Z,95723.70
2018-01-08T10:03:30.439Z,95725.89
2018-01-08T10:06:16.500Z,95724.34
2018-01-08T10:09:02.544Z,95728.03
2018-01-08T10:11:48.616Z,95730.30
2018-01-08T10:14:34.625Z,95726.55
2018-01-08T10:17:20.624Z,95721.88
2018-01-08T10:19:59.803Z,95730.86
2018-01-08T10:22:27.886Z,95727.56
2018-01-08T10:24:56.232Z,95720.09
2018-01-08T10:27:24.620Z,95717.53
2018-01-08T10:29:53.046Z,95722.03
2018-01-08T10:32:21.432Z,95718.69
2018-01-08T10:34:49.847Z,95712.45
2018-01-08T10:37:18.213Z,95709.18
2018-01-08T10:39:46.664Z,95703.85
2018-01-08T10:42:20.706Z,95704.93
2018-01-08T10:44:54.632Z,95691.96
2018-01-08T10:47:28.596Z,95688.39
2018-01-08T10:50:02.594Z,95678.58
2018-01-08T10:52:30.955Z,95684.77
2018-01-08T10:55:08.809Z,95679.78
2018-01-08T10:57:37.221Z,95681.05
2018-01-08T11:00:05.572Z,95691.27
2018-01-08T11:02:39.465Z,95681.11
2018-01-08T11:05:07.832Z,95685.89
2018-01-08T11:07:36.245Z,95675.16
2018-01-08T11:10:04.669Z,95674.27
2018-01-08T11:12:33.031Z,95664.78
2018-01-08T11:15:01.428Z,95661.50
2018-01-08T11:17:29.820Z,95669.47
2018-01-08T11:19:58.179Z,95667.28
2018-01-08T11:22:26.619Z,95651.34
2018-01-08T11:24:54.972Z,95654.30
2018-01-08T11:27:23.356Z,95655.08
2018-01-08T11:29:51.762Z,95660.47
2018-01-08T11:32:20.124Z,95646.48
2018-01-08T11:34:48.531Z,95642.80
2018-01-08T11:37:16.934Z,95635.12
2018-01-08T11:39:45.289Z,95639.36
2018-01-08T11:42:13.689Z,95637.23
2018-01-08T11:44:42.060Z,95619.33
2018-01-08T11:47:10.569Z,95628.00
2018-01-08T11:49:38.952Z,95628.38
2018-01-08T11:52:07.342Z,95623.05
2018-01-08T11:54:35.749Z,95616.48
2018-01-08T11:57:04.116Z,95621.85
2018-01-08T11:59:32.490Z,95625.86
2018-01-08T12:02:00.990Z,95619.60
2018-01-08T12:04:29.361Z,95617.47
2018-01-08T12:06:57.718Z,95615.34
2018-01-08T12:09:26.096Z,95613.56
2018-01-08T12:11:54.462Z,95601.31
2018-01-08T12:14:22.890Z,95601.08
2018-01-08T12:16:51.288Z,95601.53
2018-01-08T12:19:19.672Z,95600.94
2018-01-08T12:21:48.045Z,95600.86
2018-01-08T12:24:16.484Z,95598.38
2018-01-08T12:26:44.997Z,95598.44
2018-01-08T12:29:13.357Z,95584.60
2018-01-08T12:31:41.756Z,95579.89
2018-01-08T12:34:10.118Z,95580.36
2018-01-08T12:36:38.651Z,95578.18
2018-01-08T12:39:07.036Z,95580.80
2018-01-08T12:41:35.406Z,95569.18
2018-01-08T12:44:03.757Z,95571.55
2018-01-08T12:46:32.142Z,95563.33
2018-01-08T12:49:00.514Z,95566.91
2018-01-08T12:51:28.906Z,95566.86
2018-01-08T12:53:57.264Z,95567.97
2018-01-08T12:56:25.687Z,95557.09
2018-01-08T12:58:54.063Z,95563.82
2018-01-08T13:01:22.418Z,95566.02
2018-01-08T13:03:50.807Z,95566.75
2018-01-08T13:06:19.237Z,95558.92
2018-01-08T13:08:47.604Z,95556.81
2018-01-08T13:11:15.966Z,95562.91
2018-01-08T13:13:44.333Z,95560.37
2018-01-08T13:16:12.696Z,95563.65
2018-01-08T13:18:41.095Z,95564.03
2018-01-08T13:21:09.462Z,95558.78
2018-01-08T13:23:37.952Z,95559.99
2018-01-08T13:26:06.343Z,95556.05
2018-01-08T13:28:34.706Z,95554.38
2018-01-08T13:31:03.116Z,95561.89
2018-01-08T13:33:31.510Z,95564.05
2018-01-08T13:35:59.904Z,95561.19
2018-01-08T13:38:28.268Z,95562.80
2018-01-08T13:40:56.662Z,95558.62
2018-01-08T13:43:25.038Z,95556.17
2018-01-08T13:45:53.390Z,95552.17
2018-01-08T13:48:21.746Z,95553.53
2018-01-08T13:50:50.095Z,95548.38
2018-01-08T13:53:18.480Z,95546.58
2018-01-08T13:55:46.839Z,95549.68
2018-01-08T13:58:15.216Z,95548.45
2018-01-08T14:00:43.607Z,95548.11
2018-01-08T14:03:11.982Z,95536.09
2018-01-08T14:05:40.400Z,95539.48
2018-01-08T14:08:08.811Z,95533.25
2018-01-08T14:10:37.186Z,95540.62
2018-01-08T14:13:05.560Z,95528.71
2018-01-08T14:15:33.970Z,95538.76
2018-01-08T14:18:02.411Z,95544.79
2018-01-08T14:20:30.771Z,95541.96
2018-01-08T14:22:59.136Z,95532.30
2018-01-08T14:25:27.504Z,95534.25
2018-01-08T14:27:55.874Z,95534.62
2018-01-08T14:30:24.327Z,95529.05
2018-01-08T14:32:52.728Z,95526.58
2018-01-08T14:35:21.095Z,95521.45
2018-01-08T14:37:49.454Z,95530.83
2018-01-08T14:40:17.953Z,95522.89
2018-01-08T14:42:46.319Z,95521.78
2018-01-08T14:45:14.696Z,95524.08
2018-01-08T14:47:43.104Z,95527.93
2018-01-08T14:50:11.468Z,95533.57
2018-01-08T14:52:39.863Z,95540.89
2018-01-08T14:55:08.231Z,95530.95
2018-01-08T14:57:36.595Z,95532.77
2018-01-08T15:00:04.967Z,95538.06
2018-01-08T15:02:33.337Z,95532.03
2018-01-08T15:05:01.763Z,95534.20
2018-01-08T15:07:30.129Z,95531.78
2018-01-08T15:09:58.509Z,95531.73
2018-01-08T15:12:26.876Z,95535.20
2018-01-08T15:14:55.283Z,95542.56
2018-01-08T15:17:23.792Z,95536.16
2018-01-08T15:19:52.151Z,95530.39
2018-01-08T15:22:20.518Z,95534.75
2018-01-08T15:24:48.966Z,95546.41
2018-01-08T15:27:17.342Z,95553.34
2018-01-08T15:29:45.697Z,95543.95
2018-01-08T15:32:14.080Z,95543.84
2018-01-08T15:34:42.440Z,95533.18
2018-01-08T15:37:10.840Z,95536.74
2018-01-08T15:39:39.201Z,95535.36
2018-01-08T15:42:07.563Z,95538.40
2018-01-08T15:44:35.935Z,95539.17
2018-01-08T15:47:04.303Z,95534.05
2018-01-08T15:49:32.800Z,95537.26
2018-01-08T15:52:01.212Z,95540.80
2018-01-08T15:54:29.581Z,95530.05
2018-01-08T15:56:57.962Z,95534.98
2018-01-08T15:59:26.323Z,95529.97
2018-01-08T16:01:54.803Z,95525.97
2018-01-08T16:04:23.165Z,95526.37
2018-01-08T16:06:51.556Z,95528.01
2018-01-08T16:11:47.403Z,95534.84
2018-01-08T16:14:15.892Z,95535.44
2018-01-08T16:16:44.243Z,95529.92
2018-01-08T16:19:12.647Z,95524.67
2018-01-08T16:21:41.019Z,95520.73
2018-01-08T16:24:09.387Z,95519.95
2018-01-08T16:26:37.777Z,95516.06
2018-01-08T16:29:06.139Z,95521.12
2018-01-08T16:31:34.494Z,95524.34
2018-01-08T16:34:02.857Z,95528.76
2018-01-08T16:36:31.204Z,95526.58
2018-01-08T16:38:59.600Z,95524.91
2018-01-08T16:41:27.958Z,95524.38
2018-01-08T16:43:56.312Z,95525.05
2018-01-08T16:46:24.790Z,95529.39
2018-01-08T16:48:53.159Z,95527.83
2018-01-08T16:51:21.563Z,95518.11
2018-01-08T16:53:49.932Z,95520.78
2018-01-08T16:56:18.311Z,95520.47
2018-01-08T16:58:46.668Z,95528.74
2018-01-08T17:01:15.028Z,95525.46
2018-01-08T17:03:43.438Z,95531.81
2018-01-08T17:06:11.879Z,95528.64
2018-01-08T17:08:40.320Z,95530.38
2018-01-08T17:11:08.683Z,95531.09
2018-01-08T17:13:37.045Z,95530.52
2018-01-08T17:16:05.431Z,95531.14
2018-01-08T17:18:33.800Z,95529.80
2018-01-08T17:21:02.179Z,95526.47
2018-01-08T17:23:30.569Z,95521.05
2018-01-08T17:25:58.915Z,95515.91
2018-01-08T17:28:27.323Z,95525.69
2018-01-08T17:30:55.698Z,95529.66
2018-01-08T17:33:24.047Z,95519.39
2018-01-08T17:35:52.466Z,95515.05
2018-01-08T17:38:20.848Z,95505.44
2018-01-08T17:40:49.353Z,95504.24
2018-01-08T17:43:17.731Z,95523.72
2018-01-08T17:45:46.099Z,95505.98
2018-01-08T17:48:14.479Z,95506.02
2018-01-08T17:50:42.835Z,95503.09
2018-01-08T17:53:11.358Z,95500.31
2018-01-08T17:55:39.780Z,95502.63
2018-01-08T17:58:08.202Z,95497.06
2018-01-08T18:00:37.450Z,95505.84
2018-01-08T18:03:05.826Z,95512.27
2018-01-08T18:05:34.207Z,95498.95
2018-01-08T18:08:02.563Z,95499.23
2018-01-08T18:10:30.914Z,95504.42
2018-01-08T18:12:59.286Z,95490.68
2018-01-08T18:15:27.689Z,95501.25
2018-01-08T18:17:56.081Z,95493.81
2018-01-08T18:20:24.504Z,95481.56
2018-01-08T18:22:52.875Z,95487.61
2018-01-08T18:25:21.285Z,95483.40
2018-01-08T18:27:49.692Z,95482.34
2018-01-08T18:30:18.107Z,95474.23
2018-01-08T18:32:46.481Z,95477.27
2018-01-08T18:35:14.843Z,95478.38
2018-01-08T18:37:43.250Z,95483.34
2018-01-08T18:40:11.628Z,95480.85
2018-01-08T18:42:40.034Z,95487.58
2018-01-08T18:45:08.392Z,95479.00
2018-01-08T18:47:36.745Z,95471.78
2018-01-08T18:50:05.214Z,95460.96
2018-01-08T18:52:33.708Z,95466.55
2018-01-08T18:55:02.109Z,95473.05
2018-01-08T18:57:30.446Z,95459.48
2018-01-08T18:59:58.824Z,95447.96
2018-01-08T19:02:27.198Z,95451.23
2018-01-08T19:04:55.580Z,95451.73
2018-01-08T19:07:23.963Z,95446.11
2018-01-08T19:09:52.328Z,95460.24
2018-01-08T19:12:20.695Z,95453.13
2018-01-08T19:14:49.080Z,95444.75
2018-01-08T19:17:17.439Z,95438.20
2018-01-08T19:19:45.854Z,95440.58
2018-01-08T19:22:14.220Z,95443.05
2018-01-08T19:24:42.581Z,95432.98
2018-01-08T19:27:10.940Z,95430.92
2018-01-08T19:29:39.289Z,95423.20
2018-01-08T19:32:07.717Z,95429.59
2018-01-08T19:34:36.116Z,95430.59
2018-01-08T19:37:04.499Z,95425.81
2018-01-08T19:39:32.887Z,95415.13
2018-01-08T19:42:01.259Z,95420.81
2018-01-08T19:44:29.756Z,95410.27
2018-01-08T19:46:58.123Z,95419.20
2018-01-08T19:49:26.487Z,95415.73
2018-01-08T19:51:54.848Z,95418.38
2018-01-08T19:54:23.236Z,95410.25
2018-01-08T19:56:51.653Z,95415.23
2018-01-08T19:59:20.015Z,95418.97
2018-01-08T20:01:48.371Z,95419.73
2018-01-08T20:04:16.745Z,95420.25
2018-01-08T20:06:45.125Z,95427.02
2018-01-08T20:09:13.519Z,95424.39
2018-01-08T20:11:42.788Z,95412.80
2018-01-08T20:14:11.154Z,95409.31
2018-01-08T20:16:39.589Z,95403.13
2018-01-08T20:19:07.972Z,95408.78
2018-01-08T20:21:36.419Z,95405.52
2018-01-08T20:24:04.827Z,95403.87
2018-01-08T20:26:33.198Z,95394.61
2018-01-08T20:29:01.555Z,95397.41
2018-01-08T20:31:29.935Z,95402.73
2018-01-08T20:33:58.339Z,95393.19
2018-01-08T20:36:26.683Z,95395.66
2018-01-08T20:38:55.046Z,95387.09
2018-01-08T20:41:23.432Z,95380.86
2018-01-08T20:43:51.793Z,95381.72
2018-01-08T20:46:20.152Z,95381.02
2018-01-08T20:48:48.631Z,95385.08
2018-01-08T20:51:17.041Z,95374.02
2018-01-08T20:53:45.412Z,95370.11
2018-01-08T20:56:13.819Z,95353.66
2018-01-08T20:58:42.168Z,95359.10
2018-01-08T21:01:10.540Z,95343.97
2018-01-08T21:03:39.263Z,95342.77
2018-01-08T21:06:07.843Z,95347.16
2018-01-08T21:08:36.196Z,95340.56
2018-01-08T21:11:04.645Z,95339.17
2018-01-08T21:13:33.007Z,95331.83
2018-01-08T21:16:01.366Z,95320.63
2018-01-08T21:18:29.723Z,95318.55
2018-01-08T21:20:58.072Z,95327.14
2018-01-08T21:23:26.467Z,95310.19
2018-01-08T21:25:54.871Z,95304.70
2018-01-08T21:28:23.234Z,95317.98
2018-01-08T21:30:51.593Z,95299.41
2018-01-08T21:33:19.947Z,95290.91
2018-01-08T21:35:48.375Z,95292.05
2018-01-08T21:38:16.728Z,95282.94
2018-01-08T21:40:45.104Z,95279.89
2018-01-08T21:43:13.470Z,95285.03
2018-01-08T21:45:41.854Z,95279.52
2018-01-08T21:48:10.265Z,95270.06
2018-01-08T21:50:38.635Z,95259.02
2018-01-08T21:53:07.227Z,95267.80
2018-01-08T21:55:35.584Z,95259.33
2018-01-08T21:58:04.092Z,95256.81
2018-01-08T22:00:32.606Z,95256.65
2018-01-08T22:03:00.967Z,95251.17
2018-01-08T22:05:29.332Z,95244.59
2018-01-08T22:07:57.704Z,95241.36
2018-01-08T22:10:26.055Z,95234.69
2018-01-08T22:12:54.902Z,95236.36
2018-01-08T22:15:23.309Z,95246.27
2018-01-08T22:17:51.688Z,95229.08
2018-01-08T22:20:20.117Z,95224.70
2018-01-08T22:22:48.503Z,95224.86
2018-01-08T22:25:16.991Z,95201.76
2018-01-08T22:27:45.395Z,95205.31
2018-01-08T22:30:13.762Z,95209.75
2018-01-08T22:32:42.121Z,95201.84
2018-01-08T22:35:10.559Z,95198.36
2018-01-08T22:37:39.146Z,95194.83
2018-01-08T22:40:07.539Z,95182.16
2018-01-08T22:42:36.008Z,95189.44
2018-01-08T22:45:04.407Z,95186.91
2018-01-08T22:47:32.763Z,95173.05
2018-01-08T22:50:01.124Z,95181.81
2018-01-08T22:52:29.483Z,95174.02
2018-01-08T22:54:57.847Z,95168.80
2018-01-08T22:57:26.334Z,95155.92
2018-01-08T22:59:54.687Z,95162.88
2018-01-08T23:02:23.045Z,95156.84
2018-01-08T23:04:51.408Z,95151.50
2018-01-08T23:07:19.761Z,95150.91
2018-01-08T23:09:48.161Z,95143.14
2018-01-08T23:12:16.533Z,95144.90
2018-01-08T23:14:44.904Z,95133.64
2018-01-08T23:17:13.265Z,95125.67
2018-01-08T23:19:41.651Z,95113.70
2018-01-08T23:22:10.051Z,95115.67
2018-01-08T23:24:38.403Z,95107.60
2018-01-08T23:27:06.785Z,95102.59
2018-01-08T23:29:35.167Z,95097.12
2018-01-08T23:32:03.536Z,95099.69
2018-01-08T23:34:31.942Z,95090.88
2018-01-08T23:37:00.312Z,95094.87
2018-01-08T23:39:28.684Z,95094.16
2018-01-08T23:41:57.062Z,95076.73
2018-01-08T23:44:25.460Z,95087.17
2018-01-08T23:46:53.811Z,95078.22
2018-01-08T23:49:22.182Z,95073.69
2018-01-08T23:51:50.633Z,95066.93
2018-01-08T23:54:22.698Z,95069.79
2018-01-08T23:56:51.106Z,95068.88
2018-01-08T23:59:19.468Z,95061.09
